Time;durP1;ratioP1;P1;durP2;ratioP2;P2;SDS_P1;SDS_P2;PMS_P1;PMS_P2;Temp;Humidity;BMP_temperature;BMP_pressure;BME280_temperature;BME280_humidity;BME280_pressure;Samples;Min_cycle;Max_cycle;Signal;HPM_P1;HPM_P2
2022/01/17 00:00:40;;;;;;;45.03;24.98;;;;;;;3.27;100.00;101625.94;4937584;29;20135;-72
2022/01/17 00:03:26;;;;;;;44.33;24.02;;;;;;;3.35;100.00;101628.72;4938001;29;20034;-71
2022/01/17 00:08:49;;;;;;;42.42;24.13;;;;;;;3.18;100.00;101619.63;5050026;23;20070;-71
2022/01/17 00:11:37;;;;;;;40.65;23.85;;;;;;;3.37;100.00;101619.25;4956466;29;20023;-71
2022/01/17 00:14:28;;;;;;;39.80;22.70;;;;;;;3.31;100.00;101619.13;4943575;29;20094;-71
2022/01/17 00:20:09;;;;;;;39.47;22.25;;;;;;;3.19;100.00;101611.03;4957313;29;20067;-71
2022/01/17 00:22:55;;;;;;;39.17;21.83;;;;;;;3.29;100.00;101608.72;4956551;28;20019;-70
2022/01/17 00:25:41;;;;;;;43.13;22.67;;;;;;;3.28;100.00;101606.97;4956767;28;20031;-70
2022/01/17 00:29:16;;;;;;;39.42;22.48;;;;;;;3.38;100.00;101595.13;4957138;28;20054;-70
2022/01/17 00:32:02;;;;;;;38.78;21.20;;;;;;;3.48;100.00;101595.41;4956821;29;20110;-72
2022/01/17 00:34:48;;;;;;;39.38;22.17;;;;;;;3.33;100.00;101594.13;4956555;29;20031;-71
2022/01/17 00:37:34;;;;;;;38.13;21.10;;;;;;;3.27;100.00;101587.09;4956100;28;20027;-70
2022/01/17 00:40:22;;;;;;;35.30;20.98;;;;;;;3.12;100.00;101585.81;4956024;29;20035;-71
2022/01/17 00:43:10;;;;;;;38.22;21.77;;;;;;;3.24;100.00;101592.19;4942909;28;20350;-71
2022/01/17 00:45:57;;;;;;;39.08;21.35;;;;;;;3.12;100.00;101597.06;4955315;28;20035;-71
2022/01/17 00:48:43;;;;;;;36.55;20.50;;;;;;;3.25;100.00;101596.53;4956902;29;20113;-71
2022/01/17 00:51:28;;;;;;;37.83;21.73;;;;;;;3.17;100.00;101597.19;4956379;29;20038;-71
2022/01/17 00:54:14;;;;;;;37.53;21.20;;;;;;;3.22;100.00;101591.25;4956868;28;20020;-71
2022/01/17 00:57:00;;;;;;;41.20;22.13;;;;;;;2.95;100.00;101587.97;4942285;29;20035;-70
2022/01/17 00:59:46;;;;;;;38.20;21.83;;;;;;;3.33;100.00;101586.34;4941670;29;20027;-71
2022/01/17 01:02:31;;;;;;;36.72;22.00;;;;;;;2.66;100.00;101585.41;4956489;28;20038;-71
2022/01/17 01:05:17;;;;;;;37.35;21.02;;;;;;;2.70;100.00;101577.75;4948381;28;20479;-71
2022/01/17 01:08:03;;;;;;;37.70;20.83;;;;;;;3.00;100.00;101569.94;4962501;29;20055;-71
2022/01/17 01:10:49;;;;;;;35.38;21.10;;;;;;;2.67;100.00;101577.69;4962275;28;20436;-71
2022/01/17 01:13:36;;;;;;;37.17;20.45;;;;;;;2.47;100.00;101571.09;4961920;29;20031;-70
2022/01/17 01:16:30;;;;;;;32.55;19.83;;;;;;;2.30;100.00;101569.75;4961207;28;20046;-70
2022/01/17 01:19:40;;;;;;;33.05;20.27;;;;;;;2.63;100.00;101559.44;4962906;28;20114;-71
2022/01/17 01:28:33;;;;;;;33.88;19.58;;;;;;;1.72;100.00;101537.78;4962263;29;20127;-71
2022/01/17 01:31:28;;;;;;;34.20;20.15;;;;;;;1.59;100.00;101537.34;4949261;29;20031;-71
2022/01/17 01:34:15;;;;;;;37.45;21.05;;;;;;;1.69;100.00;101532.53;4949074;28;20456;-71
2022/01/17 01:37:03;;;;;;;41.17;20.95;;;;;;;2.08;100.00;101531.16;4963017;28;20035;-71
2022/01/17 01:39:50;;;;;;;37.85;21.80;;;;;;;2.22;100.00;101527.28;4948221;29;20031;-72
2022/01/17 01:42:36;;;;;;;38.10;21.02;;;;;;;2.19;100.00;101515.94;4962216;28;20551;-70
2022/01/17 01:45:22;;;;;;;38.40;21.48;;;;;;;2.21;100.00;101514.31;4947968;28;20443;-70
2022/01/17 01:48:11;;;;;;;39.50;22.13;;;;;;;1.54;100.00;101506.25;4962307;29;20019;-70
2022/01/17 01:50:57;;;;;;;35.45;20.67;;;;;;;2.22;100.00;101501.44;4962574;28;20034;-70
2022/01/17 01:53:43;;;;;;;36.55;20.83;;;;;;;2.00;100.00;101495.56;4947696;29;20423;-71
2022/01/17 01:56:29;;;;;;;36.28;21.00;;;;;;;2.25;100.00;101492.88;4935545;29;20069;-71
2022/01/17 01:59:19;;;;;;;39.33;22.10;;;;;;;1.99;100.00;101492.13;4961970;29;20023;-72
2022/01/17 02:02:20;;;;;;;37.42;21.40;;;;;;;2.10;100.00;101497.59;4968301;28;20027;-72
2022/01/17 02:05:06;;;;;;;38.28;20.85;;;;;;;2.02;100.00;101492.22;4963428;28;20094;-72
2022/01/17 02:07:55;;;;;;;42.00;23.75;;;;;;;1.83;100.00;101496.78;4962059;28;20058;-71
2022/01/17 02:10:42;;;;;;;50.83;27.58;;;;;;;2.08;100.00;101487.22;4961766;29;20058;-71
2022/01/17 02:13:27;;;;;;;59.78;34.03;;;;;;;2.21;100.00;101481.56;4962606;28;20479;-72
2022/01/17 02:16:16;;;;;;;64.57;36.80;;;;;;;2.28;100.00;101473.16;4944114;29;20058;-71
2022/01/17 02:19:02;;;;;;;56.65;33.53;;;;;;;1.82;100.00;101472.69;4945110;29;20098;-71
2022/01/17 02:21:48;;;;;;;55.22;31.95;;;;;;;2.00;100.00;101472.31;4958439;29;20467;-71
2022/01/17 02:24:34;;;;;;;49.70;26.63;;;;;;;1.74;100.00;101470.69;4944711;29;20027;-72
2022/01/17 02:27:20;;;;;;;43.67;25.58;;;;;;;1.97;100.00;101469.66;4944755;29;20349;-72
2022/01/17 02:30:07;;;;;;;43.92;25.42;;;;;;;1.92;100.00;101466.94;4958321;29;20027;-71
2022/01/17 02:32:53;;;;;;;43.22;24.90;;;;;;;1.81;100.00;101468.31;4958726;29;20033;-72
2022/01/17 02:35:39;;;;;;;44.30;24.88;;;;;;;1.65;100.00;101468.69;4944072;28;20106;-72
2022/01/17 02:38:25;;;;;;;46.30;26.38;;;;;;;1.49;100.00;101463.91;4958414;29;20423;-72
2022/01/17 02:41:11;;;;;;;46.05;26.45;;;;;;;1.40;100.00;101466.19;4957945;29;20416;-72
2022/01/17 02:44:00;;;;;;;47.25;25.35;;;;;;;1.56;100.00;101471.00;4944341;29;20032;-72
2022/01/17 02:46:46;;;;;;;40.92;23.63;;;;;;;1.51;100.00;101466.53;4958366;28;20031;-71
2022/01/17 02:49:32;;;;;;;43.40;24.70;;;;;;;1.86;100.00;101471.94;4959319;28;20133;-72
2022/01/17 02:52:20;;;;;;;47.13;26.40;;;;;;;1.71;100.00;101471.47;4958029;29;20121;-71
2022/01/17 02:55:06;;;;;;;47.90;26.77;;;;;;;1.07;100.00;101462.56;4951433;28;20031;-72
2022/01/17 02:57:52;;;;;;;49.10;26.55;;;;;;;1.09;100.00;101448.03;4958724;29;20031;-71
2022/01/17 03:00:38;;;;;;;46.78;27.55;;;;;;;1.26;100.00;101443.38;4958831;29;20027;-72
2022/01/17 03:03:27;;;;;;;42.78;26.40;;;;;;;1.33;100.00;101448.75;4958148;29;20074;-72
2022/01/17 03:06:14;;;;;;;47.22;27.48;;;;;;;1.30;100.00;101440.94;4958815;28;20093;-73
2022/01/17 03:09:00;;;;;;;47.95;27.02;;;;;;;1.33;100.00;101442.75;4944889;29;20120;-72
2022/01/17 03:11:46;;;;;;;43.10;24.52;;;;;;;1.24;100.00;101442.47;4958051;29;20452;-71
2022/01/17 03:14:33;;;;;;;41.30;23.77;;;;;;;1.39;100.00;101448.09;4958968;28;20114;-71
2022/01/17 03:17:18;;;;;;;45.70;24.98;;;;;;;1.31;100.00;101441.81;5730951;23;20039;-71
2022/01/17 03:20:05;;;;;;;44.20;24.45;;;;;;;1.46;100.00;101432.84;4957739;29;20035;-71
2022/01/17 03:22:50;;;;;;;40.65;23.70;;;;;;;1.64;100.00;101423.03;4958276;28;20039;-72
2022/01/17 03:25:36;;;;;;;47.05;22.65;;;;;;;1.84;100.00;101428.81;4958296;28;20401;-71
2022/01/17 03:28:23;;;;;;;40.83;22.45;;;;;;;1.60;100.00;101420.34;4956781;29;20384;-72
2022/01/17 03:31:10;;;;;;;36.58;20.92;;;;;;;1.63;100.00;101405.81;4957222;29;20389;-72
2022/01/17 03:33:55;;;;;;;34.80;20.67;;;;;;;1.90;100.00;101391.09;4958285;28;20360;-72
2022/01/17 03:36:44;;;;;;;35.50;20.20;;;;;;;1.86;100.00;101406.47;4943626;29;20034;-71
2022/01/17 03:45:52;;;;;;;35.70;20.63;;;;;;;1.78;100.00;101398.50;5943997;23;20125;-72
2022/01/17 03:48:37;;;;;;;35.22;19.73;;;;;;;1.63;100.00;101392.00;4925168;29;20032;-71
2022/01/17 03:55:10;;;;;;;35.55;19.17;;;;;;;1.21;100.00;101403.66;5330540;23;20027;-70
2022/01/17 03:57:55;;;;;;;33.55;18.88;;;;;;;1.11;100.00;101399.91;4937088;29;20048;-70
2022/01/17 04:00:44;;;;;;;32.33;18.45;;;;;;;1.14;100.00;101394.84;4937330;29;20095;-70
2022/01/17 04:03:30;;;;;;;32.95;18.38;;;;;;;1.07;100.00;101403.22;4937814;29;20417;-70
2022/01/17 04:06:17;;;;;;;33.42;19.08;;;;;;;1.14;100.00;101396.53;4924484;29;20036;-70
2022/01/17 04:09:03;;;;;;;38.80;20.33;;;;;;;0.95;100.00;101396.78;4938529;29;20090;-71
2022/01/17 04:11:49;;;;;;;33.97;20.05;;;;;;;0.91;100.00;101398.41;4923319;29;20483;-70
2022/01/17 04:14:36;;;;;;;35.38;21.15;;;;;;;0.66;100.00;101392.41;4938341;29;20437;-70
2022/01/17 04:17:27;;;;;;;39.80;22.40;;;;;;;0.75;100.00;101382.38;4937973;29;20457;-70
2022/01/17 04:23:54;;;;;;;42.13;23.83;;;;;;;0.64;100.00;101394.06;4937058;29;20369;-71
2022/01/17 04:26:42;;;;;;;53.67;28.42;;;;;;;0.62;100.00;101381.13;4937733;29;20032;-72
2022/01/17 04:29:28;;;;;;;61.28;32.58;;;;;;;0.52;100.00;101381.63;4936876;29;20026;-71
2022/01/17 04:32:13;;;;;;;68.88;34.08;;;;;;;0.33;100.00;101380.97;4937381;29;20042;-71
2022/01/17 04:34:59;;;;;;;55.67;29.73;;;;;;;0.47;100.00;101380.63;4936027;29;20114;-71
2022/01/17 04:37:45;;;;;;;51.88;27.02;;;;;;;0.62;100.00;101375.97;4923585;29;20107;-71
2022/01/17 04:40:38;;;;;;;52.88;26.63;;;;;;;0.53;100.00;101367.06;4937889;29;20130;-72
2022/01/17 04:46:38;;;;;;;52.55;28.75;;;;;;;0.32;100.00;101356.91;4894970;29;20424;-72
2022/01/17 04:49:24;;;;;;;50.17;28.05;;;;;;;0.31;100.00;101360.31;4936921;29;20028;-71
2022/01/17 04:52:13;;;;;;;56.97;29.60;;;;;;;0.31;100.00;101357.72;4936608;29;20020;-72
2022/01/17 04:55:02;;;;;;;51.00;28.25;;;;;;;0.33;100.00;101356.09;4937949;29;20119;-71
2022/01/17 04:57:48;;;;;;;52.83;27.40;;;;;;;0.36;100.00;101351.03;4922477;29;20104;-72
2022/01/17 05:00:39;;;;;;;51.08;27.85;;;;;;;0.44;100.00;101352.16;4937251;29;20044;-72
2022/01/17 05:03:26;;;;;;;50.88;26.65;;;;;;;0.40;100.00;101349.44;4937142;29;20063;-71
2022/01/17 05:08:47;;;;;;;55.45;31.35;;;;;;;0.45;100.00;101348.78;5516714;23;20050;-70
2022/01/17 05:11:34;;;;;;;47.78;26.30;;;;;;;0.03;100.00;101352.47;4955607;29;20023;-72
2022/01/17 05:14:19;;;;;;;44.65;24.77;;;;;;;0.20;100.00;101345.31;4956712;29;20031;-72
2022/01/17 05:17:24;;;;;;;39.78;23.40;;;;;;;0.13;100.00;101341.66;4942495;29;20019;-72
2022/01/17 05:20:11;;;;;;;39.78;21.98;;;;;;;0.18;100.00;101340.13;4943313;28;20027;-72
2022/01/17 05:22:57;;;;;;;36.50;21.00;;;;;;;0.05;100.00;101335.38;4942163;29;20028;-72
2022/01/17 05:25:43;;;;;;;35.25;20.92;;;;;;;-0.08;100.00;101328.06;4956699;28;20035;-71
2022/01/17 05:32:48;;;;;;;42.78;21.65;;;;;;;0.13;100.00;101298.72;4955289;29;20058;-72
2022/01/17 05:35:34;;;;;;;43.10;23.60;;;;;;;0.13;100.00;101294.41;4956372;28;20111;-73
2022/01/17 05:38:20;;;;;;;52.00;25.92;;;;;;;-0.02;100.00;101298.25;4955993;29;20042;-71
2022/01/17 05:41:05;;;;;;;51.33;26.73;;;;;;;0.15;100.00;101308.25;4955175;29;20047;-72
2022/01/17 05:43:51;;;;;;;50.25;25.95;;;;;;;0.23;100.00;101312.81;4955848;29;20169;-71
2022/01/17 05:46:37;;;;;;;51.38;26.33;;;;;;;0.32;100.00;101295.06;4955692;28;20094;-72
2022/01/17 05:49:23;;;;;;;55.47;27.85;;;;;;;0.23;100.00;101291.34;4941982;28;20031;-71
2022/01/17 05:52:10;;;;;;;50.72;28.05;;;;;;;0.27;100.00;101294.03;4959901;28;20503;-71
2022/01/17 06:00:19;;;;;;;54.33;28.65;;;;;;;0.65;100.00;101300.41;5247675;23;20055;-72
2022/01/17 06:03:04;;;;;;;61.13;32.97;;;;;;;0.66;100.00;101308.22;4958858;29;20038;-72
2022/01/17 06:05:50;;;;;;;57.80;30.60;;;;;;;0.78;100.00;101303.44;4959600;28;20039;-71
2022/01/17 06:08:37;;;;;;;49.58;26.63;;;;;;;0.84;100.00;101315.66;4959098;29;20055;-71
2022/01/17 06:11:23;;;;;;;36.97;20.35;;;;;;;0.88;100.00;101308.03;4958790;29;20028;-71
2022/01/17 06:14:10;;;;;;;32.33;17.92;;;;;;;1.04;100.00;101312.81;4959011;29;20452;-71
2022/01/17 06:16:56;;;;;;;32.38;17.00;;;;;;;1.11;100.00;101307.03;4958752;28;20035;-71
2022/01/17 06:20:31;;;;;;;31.13;16.70;;;;;;;1.44;100.00;101297.66;4959699;28;20031;-71
2022/01/17 06:23:17;;;;;;;30.63;16.05;;;;;;;1.59;100.00;101305.84;4959547;28;20027;-71
2022/01/17 06:26:06;;;;;;;33.00;18.02;;;;;;;1.78;100.00;101302.94;4958752;28;20425;-72
2022/01/17 06:28:51;;;;;;;32.85;18.15;;;;;;;1.76;100.00;101307.19;4959140;29;20035;-71
2022/01/17 06:31:38;;;;;;;31.73;18.00;;;;;;;2.14;100.00;101301.31;4958418;29;20031;-72
2022/01/17 06:34:24;;;;;;;22.35;13.15;;;;;;;2.37;100.00;101297.56;4959263;28;20449;-71
2022/01/17 06:37:10;;;;;;;22.33;12.18;;;;;;;2.39;100.00;101295.91;4959306;28;20523;-72
2022/01/17 06:39:56;;;;;;;19.73;11.73;;;;;;;2.69;100.00;101291.47;4944634;29;20027;-71
2022/01/17 06:42:42;;;;;;;19.13;11.10;;;;;;;2.82;100.00;101303.81;4944728;29;20038;-71
2022/01/17 06:45:27;;;;;;;20.75;11.18;;;;;;;2.92;100.00;101303.22;4959260;28;20034;-71
2022/01/17 06:48:13;;;;;;;17.92;10.68;;;;;;;3.14;100.00;101302.81;4959073;29;20441;-71
2022/01/17 06:50:59;;;;;;;19.60;11.30;;;;;;;3.21;100.00;101298.66;4958961;28;20321;-71
2022/01/17 06:53:45;;;;;;;20.33;11.10;;;;;;;3.23;100.00;101292.69;4957982;29;20078;-71
2022/01/17 06:56:31;;;;;;;16.25;10.40;;;;;;;3.14;100.00;101274.34;4958324;28;20031;-71
2022/01/17 06:59:17;;;;;;;19.23;10.93;;;;;;;3.30;100.00;101284.19;4957820;29;20115;-72
2022/01/17 07:02:03;;;;;;;18.65;10.48;;;;;;;3.44;100.00;101287.94;4957807;28;20024;-71
2022/01/17 07:04:48;;;;;;;21.80;10.63;;;;;;;3.52;100.00;101291.56;4944672;29;20047;-72
2022/01/17 07:07:34;;;;;;;18.73;11.32;;;;;;;3.68;100.00;101280.66;4958629;28;20054;-71
2022/01/17 07:10:20;;;;;;;17.05;10.27;;;;;;;3.64;100.00;101281.44;4957984;29;20023;-71
2022/01/17 07:13:06;;;;;;;26.48;9.68;;;;;;;3.70;100.00;101268.59;4958255;29;20367;-71
2022/01/17 07:15:52;;;;;;;20.90;11.27;;;;;;;3.84;100.00;101268.84;4957097;28;20099;-71
2022/01/17 07:18:37;;;;;;;19.45;10.57;;;;;;;4.01;100.00;101265.72;4958032;29;20023;-72
2022/01/17 07:21:24;;;;;;;20.10;10.80;;;;;;;4.08;100.00;101264.97;4957670;29;20038;-73
2022/01/17 07:24:10;;;;;;;19.05;10.75;;;;;;;4.11;100.00;101283.16;4958772;28;20448;-72
2022/01/17 07:26:56;;;;;;;26.25;11.20;;;;;;;4.13;100.00;101267.63;4957713;28;20380;-71
2022/01/17 07:29:42;;;;;;;20.45;11.75;;;;;;;4.05;100.00;101264.03;4943513;29;20027;-72
2022/01/17 07:32:29;;;;;;;18.63;11.38;;;;;;;4.10;100.00;101257.22;4958299;29;20039;-73
2022/01/17 07:35:15;;;;;;;20.05;12.00;;;;;;;4.22;100.00;101247.91;4957450;29;20085;-72
2022/01/17 07:38:01;;;;;;;24.15;12.57;;;;;;;4.21;100.00;101234.91;4958050;28;20378;-71
2022/01/17 07:40:47;;;;;;;22.65;11.98;;;;;;;4.39;100.00;101240.41;4943274;29;20066;-71
2022/01/17 07:43:33;;;;;;;21.35;12.07;;;;;;;4.33;100.00;101263.66;4956865;29;20027;-71
2022/01/17 07:46:33;;;;;;;22.52;12.40;;;;;;;4.44;100.00;101275.97;4957319;28;20027;-72
2022/01/17 07:49:20;;;;;;;22.02;12.23;;;;;;;4.45;100.00;101328.69;4957834;29;20122;-73
2022/01/17 07:52:06;;;;;;;20.40;12.02;;;;;;;4.37;100.00;101317.31;4957445;29;20448;-72
2022/01/17 07:54:52;;;;;;;20.13;11.75;;;;;;;4.44;100.00;101324.38;4957290;29;20027;-73
2022/01/17 07:57:38;;;;;;;21.63;12.45;;;;;;;4.58;100.00;101318.56;4956532;29;20102;-72
2022/01/17 08:00:25;;;;;;;21.02;12.23;;;;;;;4.76;100.00;101295.50;4956482;29;20046;-73
2022/01/17 08:03:14;;;;;;;24.67;12.95;;;;;;;4.69;100.00;101270.28;4956439;29;20035;-72
2022/01/17 08:06:02;;;;;;;22.92;12.93;;;;;;;4.86;100.00;101248.03;4942536;28;20031;-73
2022/01/17 08:08:48;;;;;;;21.58;13.20;;;;;;;4.97;100.00;101230.91;4957163;28;20031;-74
2022/01/17 08:11:34;;;;;;;27.35;13.60;;;;;;;5.23;100.00;101262.41;4956509;29;20128;-72
2022/01/17 08:14:21;;;;;;;25.77;14.70;;;;;;;5.36;100.00;101313.66;4941786;29;20085;-72
2022/01/17 08:17:10;;;;;;;24.63;15.38;;;;;;;5.75;100.00;101368.72;4956887;28;20035;-73
2022/01/17 08:19:56;;;;;;;26.63;15.93;;;;;;;5.57;100.00;101414.38;4956916;28;20039;-72
2022/01/17 08:22:43;;;;;;;26.92;16.58;;;;;;;5.68;100.00;101442.28;4957007;29;20034;-72
2022/01/17 08:25:29;;;;;;;28.23;17.23;;;;;;;5.75;100.00;101409.44;4942721;28;20031;-72
2022/01/17 08:28:15;;;;;;;28.10;17.67;;;;;;;5.83;100.00;101355.84;4957007;28;20118;-72
2022/01/17 08:31:01;;;;;;;30.13;18.10;;;;;;;5.74;100.00;101369.56;4957168;29;20019;-73
2022/01/17 08:33:47;;;;;;;26.17;17.13;;;;;;;5.67;100.00;101359.09;4956772;28;20361;-73
2022/01/17 08:36:32;;;;;;;36.33;18.42;;;;;;;5.50;100.00;101335.47;4956155;28;20051;-73
2022/01/17 08:39:18;;;;;;;33.53;19.15;;;;;;;5.90;100.00;101308.28;4955833;29;20072;-73
2022/01/17 08:42:11;;;;;;;28.48;18.27;;;;;;;5.83;100.00;101262.25;4956410;29;20418;-75
2022/01/17 08:44:57;;;;;;;29.65;18.58;;;;;;;5.97;100.00;101284.03;4943669;28;20457;-71
2022/01/17 08:47:46;;;;;;;32.65;19.13;;;;;;;5.97;100.00;101310.94;4956039;29;20027;-70
2022/01/17 08:50:32;;;;;;;33.85;20.15;;;;;;;6.49;100.00;101299.28;4958341;28;20081;-71
2022/01/17 08:53:18;;;;;;;29.17;18.70;;;;;;;6.69;100.00;101279.47;4955659;29;20102;-71
2022/01/17 08:56:04;;;;;;;30.50;17.85;;;;;;;6.27;100.00;101276.56;4956353;28;20383;-70
2022/01/17 08:58:50;;;;;;;32.50;19.83;;;;;;;6.11;100.00;101272.06;4955693;28;20378;-71
2022/01/17 09:01:36;;;;;;;31.67;18.63;;;;;;;6.04;100.00;101257.25;4955497;29;20030;-71
2022/01/17 09:04:22;;;;;;;36.00;19.02;;;;;;;6.29;100.00;101259.19;4956247;28;20066;-71
2022/01/17 09:07:16;;;;;;;30.38;18.92;;;;;;;6.35;100.00;101254.06;4954939;28;20039;-72
2022/01/17 09:10:04;;;;;;;33.03;19.75;;;;;;;6.40;100.00;101219.41;4955270;29;20058;-70
2022/01/17 09:12:51;;;;;;;32.00;18.23;;;;;;;6.01;100.00;101208.69;4956634;28;20461;-71
2022/01/17 09:15:37;;;;;;;29.13;17.77;;;;;;;6.33;100.00;101211.53;4942776;28;20237;-70
2022/01/17 09:18:24;;;;;;;33.35;19.65;;;;;;;6.71;100.00;101204.88;4955468;29;20436;-71
2022/01/17 09:21:11;;;;;;;32.33;18.55;;;;;;;6.44;100.00;101196.88;4941420;29;20038;-71
2022/01/17 09:23:58;;;;;;;29.15;17.80;;;;;;;6.62;100.00;101187.44;4957142;28;20174;-72
2022/01/17 09:26:47;;;;;;;31.75;18.27;;;;;;;6.70;100.00;101185.75;4946548;28;20027;-71
2022/01/17 09:29:33;;;;;;;29.48;17.85;;;;;;;6.93;100.00;101171.13;4960373;28;20031;-71
2022/01/17 09:32:19;;;;;;;34.55;17.85;;;;;;;6.72;100.00;101181.44;4960199;28;20027;-71
2022/01/17 09:35:06;;;;;;;36.95;17.75;;;;;;;6.62;100.00;101186.56;4944758;29;20031;-71
2022/01/17 09:37:52;;;;;;;34.03;18.20;;;;;;;6.59;100.00;101199.59;4960247;28;20027;-72
2022/01/17 09:40:38;;;;;;;24.95;16.17;;;;;;;6.67;100.00;101201.34;4959793;28;20035;-71
2022/01/17 09:43:25;;;;;;;25.45;15.52;;;;;;;6.57;100.00;101196.09;4959665;29;20027;-71
2022/01/17 09:46:11;;;;;;;32.63;16.00;;;;;;;6.74;100.00;101197.03;4959729;28;20449;-71
2022/01/17 09:49:02;;;;;;;32.22;16.48;;;;;;;6.62;100.00;101195.25;4959419;29;20449;-70
2022/01/17 09:54:44;;;;;;;27.08;15.38;;;;;;;6.76;100.00;101190.13;4959676;28;20023;-71
2022/01/17 09:57:34;;;;;;;27.13;14.93;;;;;;;6.69;100.00;101194.44;4959280;28;20027;-72
2022/01/17 10:00:25;;;;;;;30.00;14.77;;;;;;;6.67;100.00;101205.72;4960039;29;20140;-72
2022/01/17 10:03:13;;;;;;;25.92;14.32;;;;;;;6.77;100.00;101187.53;4959407;29;20035;-71
2022/01/17 10:05:59;;;;;;;27.00;13.98;;;;;;;6.52;100.00;101196.06;4958252;28;20028;-71
2022/01/17 10:08:45;;;;;;;24.80;14.32;;;;;;;6.58;100.00;101195.22;4958716;29;20126;-71
2022/01/17 10:11:32;;;;;;;22.15;13.55;;;;;;;6.68;100.00;101199.63;4958965;29;20106;-71
2022/01/17 10:14:24;;;;;;;25.65;13.80;;;;;;;6.74;100.00;101187.50;4959350;29;20031;-70
2022/01/17 10:17:13;;;;;;;23.25;14.25;;;;;;;6.78;100.00;101194.47;4958795;28;20023;-71
2022/01/17 10:20:02;;;;;;;26.17;13.00;;;;;;;6.86;100.00;101173.69;4959186;29;20031;-71
2022/01/17 10:23:18;;;;;;;24.02;14.75;;;;;;;6.95;100.00;101172.00;4958918;28;20039;-72
2022/01/17 10:26:11;;;;;;;29.70;15.50;;;;;;;7.03;100.00;101161.63;4945456;28;20440;-71
2022/01/17 10:35:33;;;;;;;25.52;15.10;;;;;;;7.27;100.00;101156.50;4958212;28;20041;-71
2022/01/17 10:38:23;;;;;;;26.27;14.32;;;;;;;7.22;100.00;101160.78;4958915;29;20035;-71
2022/01/17 10:41:09;;;;;;;22.70;14.48;;;;;;;7.48;100.00;101170.41;4959193;28;20033;-71
2022/01/17 10:43:54;;;;;;;25.33;16.00;;;;;;;7.34;100.00;101168.66;4958871;29;20031;-69
2022/01/17 10:46:40;;;;;;;30.58;18.67;;;;;;;7.47;100.00;101173.06;4958829;28;20046;-70
2022/01/17 10:49:46;;;;;;;24.55;14.32;;;;;;;7.44;100.00;101155.63;4958231;29;20046;-71
2022/01/17 10:52:38;;;;;;;26.75;14.95;;;;;;;7.67;100.00;101153.09;4958302;29;20034;-70
2022/01/17 10:55:30;;;;;;;24.13;13.98;;;;;;;7.84;100.00;101148.75;4958239;28;20035;-71
2022/01/17 10:58:37;;;;;;;27.85;14.85;;;;;;;7.82;100.00;101148.75;4958484;29;20035;-70
2022/01/17 11:01:23;;;;;;;23.52;14.40;;;;;;;7.90;100.00;101143.53;4945280;29;20108;-70
2022/01/17 11:04:09;;;;;;;24.45;14.02;;;;;;;8.64;100.00;101145.19;4957454;29;20028;-72
2022/01/17 11:07:02;;;;;;;26.50;15.35;;;;;;;8.53;100.00;101133.03;4958588;28;20046;-72
2022/01/17 11:09:50;;;;;;;25.23;15.07;;;;;;;8.59;100.00;101127.78;4944293;29;20094;-71
2022/01/17 11:12:38;;;;;;;24.45;14.02;;;;;;;8.60;100.00;101124.34;4958288;29;20363;-71
2022/01/17 11:15:25;;;;;;;21.98;14.23;;;;;;;8.22;100.00;101113.09;4958013;28;20035;-72
2022/01/17 11:18:23;;;;;;;20.90;14.15;;;;;;;8.53;100.00;101110.41;4958302;29;20155;-71
2022/01/17 11:21:17;;;;;;;22.33;13.57;;;;;;;8.28;100.00;101094.81;4944475;28;20066;-72
2022/01/17 11:24:03;;;;;;;21.92;13.60;;;;;;;8.10;100.00;101097.41;4958495;28;20132;-72
2022/01/17 11:26:49;;;;;;;22.98;14.45;;;;;;;8.52;100.00;101079.94;4958032;28;20031;-71
2022/01/17 11:29:35;;;;;;;24.90;15.10;;;;;;;8.52;100.00;101073.88;4958137;28;20019;-72
2022/01/17 11:32:22;;;;;;;27.30;15.73;;;;;;;8.38;100.00;101065.19;4957830;29;20046;-71
2022/01/17 11:35:09;;;;;;;25.10;14.75;;;;;;;8.59;100.00;101079.06;4956313;29;20031;-71
2022/01/17 11:37:58;;;;;;;22.52;14.52;;;;;;;8.39;100.00;101080.84;4957912;29;20364;-72
2022/01/17 11:40:45;;;;;;;24.05;14.57;;;;;;;8.39;100.00;101096.53;4957438;29;20031;-72
2022/01/17 11:43:34;;;;;;;25.50;15.90;;;;;;;8.36;100.00;101085.22;4958055;28;20035;-71
2022/01/17 11:46:27;;;;;;;26.05;16.35;;;;;;;8.35;100.00;101083.47;4957934;28;20062;-72
2022/01/17 11:49:24;;;;;;;24.38;16.30;;;;;;;8.59;100.00;101102.56;4957760;28;20524;-71
2022/01/17 11:52:28;;;;;;;26.35;15.70;;;;;;;8.37;100.00;101111.31;4957220;29;20444;-71
2022/01/17 11:55:42;;;;;;;25.55;16.30;;;;;;;8.10;100.00;101106.13;4957484;29;20026;-71
2022/01/17 11:58:30;;;;;;;27.48;14.95;;;;;;;7.95;100.00;101136.56;4957241;29;20046;-71
2022/01/17 12:01:20;;;;;;;25.70;15.20;;;;;;;7.99;100.00;101080.91;4956737;29;20488;-71
2022/01/17 12:04:09;;;;;;;24.92;15.32;;;;;;;7.84;100.00;101078.34;4957016;29;20439;-72
2022/01/17 12:07:01;;;;;;;30.35;15.82;;;;;;;7.73;100.00;101073.13;4943675;28;20050;-71
2022/01/17 12:09:47;;;;;;;26.08;14.80;;;;;;;7.85;100.00;101064.41;4941732;29;20031;-71
2022/01/17 12:12:33;;;;;;;27.70;15.82;;;;;;;7.90;100.00;101060.06;4956889;29;20027;-71
2022/01/17 12:15:20;;;;;;;23.20;14.45;;;;;;;8.24;100.00;101064.38;4956038;28;20024;-71
2022/01/17 12:18:28;;;;;;;23.73;15.52;;;;;;;8.29;100.00;101089.59;4956709;29;20046;-71
2022/01/17 12:21:53;;;;;;;23.58;15.30;;;;;;;8.29;100.00;101084.38;4956399;29;20031;-71
2022/01/17 12:24:42;;;;;;;23.33;14.77;;;;;;;8.32;100.00;101100.00;4957264;29;20102;-71
2022/01/17 12:27:28;;;;;;;31.15;14.45;;;;;;;8.37;100.00;101085.19;4957468;28;20444;-72
2022/01/17 12:30:15;;;;;;;25.85;15.23;;;;;;;8.38;100.00;101059.97;4956894;29;20109;-74
2022/01/17 12:33:01;;;;;;;25.40;14.93;;;;;;;8.14;100.00;101049.56;4957694;28;20041;-72
2022/01/17 12:35:47;;;;;;;23.83;15.13;;;;;;;7.86;100.00;101047.88;4957074;28;20102;-71
2022/01/17 12:38:43;;;;;;;25.10;14.18;;;;;;;8.07;100.00;101027.84;4942399;29;20038;-72
2022/01/17 12:41:36;;;;;;;26.55;15.45;;;;;;;8.10;100.00;101014.78;4956164;28;20464;-71
2022/01/17 12:44:27;;;;;;;27.10;14.32;;;;;;;8.28;100.00;101021.75;4956391;29;20031;-72
2022/01/17 12:47:15;;;;;;;22.80;14.48;;;;;;;8.16;100.00;101037.41;4955608;28;20519;-70
2022/01/17 12:50:04;;;;;;;22.25;14.45;;;;;;;8.04;100.00;101040.88;4956710;29;20034;-73
2022/01/17 12:52:51;;;;;;;26.70;14.93;;;;;;;8.05;100.00;101024.38;4956603;28;20532;-70
2022/01/17 12:55:45;;;;;;;24.52;14.90;;;;;;;8.15;100.00;101049.56;4956655;28;20043;-71
2022/01/17 12:58:34;;;;;;;22.73;13.68;;;;;;;8.06;100.00;101036.56;4956067;28;20027;-71
2022/01/17 13:01:23;;;;;;;23.17;13.60;;;;;;;8.10;100.00;101016.53;4957010;28;20043;-72
2022/01/17 13:04:11;;;;;;;21.70;12.70;;;;;;;8.12;100.00;101000.00;4956664;28;20027;-71
2022/01/17 13:06:57;;;;;;;22.90;13.43;;;;;;;8.14;100.00;101007.81;4956288;28;20145;-70
2022/01/17 13:09:43;;;;;;;20.25;12.20;;;;;;;7.99;100.00;101010.47;4956101;29;20039;-70
2022/01/17 13:12:29;;;;;;;18.08;12.00;;;;;;;8.00;100.00;100989.59;4956233;29;20062;-72
2022/01/17 13:15:17;;;;;;;21.85;12.50;;;;;;;8.16;100.00;100998.25;4941969;29;20039;-71
2022/01/17 13:18:03;;;;;;;21.58;12.50;;;;;;;8.04;100.00;100988.72;4948886;28;20059;-72
2022/01/17 13:20:51;;;;;;;22.45;12.52;;;;;;;8.01;100.00;100995.69;4957044;28;20178;-71
2022/01/17 13:27:16;;;;;;;17.80;11.88;;;;;;;8.03;100.00;100980.88;4955954;28;20171;-73
2022/01/17 13:30:10;;;;;;;19.60;11.93;;;;;;;7.93;100.00;100956.59;4956497;29;20143;-72
2022/01/17 13:32:56;;;;;;;27.50;12.93;;;;;;;7.67;100.00;100950.56;4956437;29;20019;-71
2022/01/17 13:35:51;;;;;;;21.70;11.20;;;;;;;7.68;100.00;100944.47;4955534;28;20027;-73
2022/01/17 13:38:37;;;;;;;28.92;19.05;;;;;;;7.78;100.00;100955.75;4942622;29;20388;-72